sensor_id;sensor_type;location;lat;lon;timestamp;P1;durP1;ratioP1;P2;durP2;ratioP2
80623;SDS011;70269;44.768;9.600;2024-02-23T00:02:24;2.50;;;1.02;;
80623;SDS011;70269;44.768;9.600;2024-02-23T00:04:50;2.42;;;1.05;;
80623;SDS011;70269;44.768;9.600;2024-02-23T00:07:15;2.90;;;1.15;;
80623;SDS011;70269;44.768;9.600;2024-02-23T00:09:41;2.30;;;0.80;;
80623;SDS011;70269;44.768;9.600;2024-02-23T00:12:06;1.98;;;0.80;;
80623;SDS011;70269;44.768;9.600;2024-02-23T00:14:33;2.35;;;1.15;;
80623;SDS011;70269;44.768;9.600;2024-02-23T00:17:01;2.20;;;0.80;;
80623;SDS011;70269;44.768;9.600;2024-02-23T00:19:29;1.83;;;0.80;;
80623;SDS011;70269;44.768;9.600;2024-02-23T00:21:55;3.20;;;1.13;;
80623;SDS011;70269;44.768;9.600;2024-02-23T00:24:21;2.97;;;1.00;;
80623;SDS011;70269;44.768;9.600;2024-02-23T00:26:47;1.65;;;0.82;;
80623;SDS011;70269;44.768;9.600;2024-02-23T00:29:13;3.47;;;1.35;;
80623;SDS011;70269;44.768;9.600;2024-02-23T00:31:39;2.75;;;0.75;;
80623;SDS011;70269;44.768;9.600;2024-02-23T00:34:08;1.90;;;0.75;;
80623;SDS011;70269;44.768;9.600;2024-02-23T00:36:41;1.45;;;0.65;;
80623;SDS011;70269;44.768;9.600;2024-02-23T00:39:07;1.42;;;0.60;;
80623;SDS011;70269;44.768;9.600;2024-02-23T00:41:36;1.55;;;0.50;;
80623;SDS011;70269;44.768;9.600;2024-02-23T00:44:02;4.93;;;0.60;;
80623;SDS011;70269;44.768;9.600;2024-02-23T00:46:28;2.28;;;0.90;;
80623;SDS011;70269;44.768;9.600;2024-02-23T00:48:54;1.38;;;0.70;;
80623;SDS011;70269;44.768;9.600;2024-02-23T00:51:19;2.22;;;0.80;;
80623;SDS011;70269;44.768;9.600;2024-02-23T00:53:45;1.58;;;0.43;;
80623;SDS011;70269;44.768;9.600;2024-02-23T00:56:11;1.55;;;0.65;;
80623;SDS011;70269;44.768;9.600;2024-02-23T00:58:38;1.20;;;0.70;;
80623;SDS011;70269;44.768;9.600;2024-02-23T01:01:04;1.58;;;0.57;;
80623;SDS011;70269;44.768;9.600;2024-02-23T01:03:30;1.38;;;0.47;;
80623;SDS011;70269;44.768;9.600;2024-02-23T01:05:55;1.42;;;0.50;;
80623;SDS011;70269;44.768;9.600;2024-02-23T01:08:21;2.13;;;0.70;;
80623;SDS011;70269;44.768;9.600;2024-02-23T01:10:47;2.00;;;0.73;;
80623;SDS011;70269;44.768;9.600;2024-02-23T01:13:12;3.03;;;0.43;;
80623;SDS011;70269;44.768;9.600;2024-02-23T01:15:38;1.73;;;0.80;;
80623;SDS011;70269;44.768;9.600;2024-02-23T01:18:05;2.40;;;0.60;;
80623;SDS011;70269;44.768;9.600;2024-02-23T01:20:33;3.05;;;0.90;;
80623;SDS011;70269;44.768;9.600;2024-02-23T01:22:59;3.05;;;0.70;;
80623;SDS011;70269;44.768;9.600;2024-02-23T01:25:25;2.28;;;1.00;;
80623;SDS011;70269;44.768;9.600;2024-02-23T01:27:51;1.58;;;0.73;;
80623;SDS011;70269;44.768;9.600;2024-02-23T01:30:17;3.55;;;0.85;;
80623;SDS011;70269;44.768;9.600;2024-02-23T01:32:44;2.70;;;0.80;;
80623;SDS011;70269;44.768;9.600;2024-02-23T01:35:10;4.63;;;0.90;;
80623;SDS011;70269;44.768;9.600;2024-02-23T01:37:36;1.00;;;0.57;;
80623;SDS011;70269;44.768;9.600;2024-02-23T01:40:02;1.08;;;0.60;;
80623;SDS011;70269;44.768;9.600;2024-02-23T01:42:28;1.45;;;0.52;;
80623;SDS011;70269;44.768;9.600;2024-02-23T01:44:54;1.08;;;0.40;;
80623;SDS011;70269;44.768;9.600;2024-02-23T01:47:23;1.00;;;0.47;;
80623;SDS011;70269;44.768;9.600;2024-02-23T01:49:50;0.90;;;0.35;;
80623;SDS011;70269;44.768;9.600;2024-02-23T01:52:17;0.75;;;0.43;;
80623;SDS011;70269;44.768;9.600;2024-02-23T01:54:44;1.20;;;0.60;;
80623;SDS011;70269;44.768;9.600;2024-02-23T01:57:09;1.00;;;0.68;;
80623;SDS011;70269;44.768;9.600;2024-02-23T01:59:36;2.08;;;0.95;;
80623;SDS011;70269;44.768;9.600;2024-02-23T02:02:04;0.60;;;0.32;;
80623;SDS011;70269;44.768;9.600;2024-02-23T02:04:30;1.02;;;0.50;;
80623;SDS011;70269;44.768;9.600;2024-02-23T02:06:57;1.35;;;0.75;;
80623;SDS011;70269;44.768;9.600;2024-02-23T02:09:24;1.52;;;0.45;;
80623;SDS011;70269;44.768;9.600;2024-02-23T02:11:50;0.77;;;0.43;;
80623;SDS011;70269;44.768;9.600;2024-02-23T02:14:16;1.83;;;0.60;;
80623;SDS011;70269;44.768;9.600;2024-02-23T02:16:42;1.63;;;0.60;;
80623;SDS011;70269;44.768;9.600;2024-02-23T02:19:11;3.13;;;1.00;;
80623;SDS011;70269;44.768;9.600;2024-02-23T02:21:38;2.65;;;0.73;;
80623;SDS011;70269;44.768;9.600;2024-02-23T02:24:04;1.08;;;0.35;;
80623;SDS011;70269;44.768;9.600;2024-02-23T02:26:30;1.30;;;0.60;;
80623;SDS011;70269;44.768;9.600;2024-02-23T02:28:56;1.92;;;1.10;;
80623;SDS011;70269;44.768;9.600;2024-02-23T02:31:22;1.58;;;0.60;;
80623;SDS011;70269;44.768;9.600;2024-02-23T02:33:48;1.90;;;0.68;;
80623;SDS011;70269;44.768;9.600;2024-02-23T02:36:13;2.75;;;0.73;;
80623;SDS011;70269;44.768;9.600;2024-02-23T02:38:39;1.80;;;0.82;;
80623;SDS011;70269;44.768;9.600;2024-02-23T02:41:05;1.48;;;0.60;;
80623;SDS011;70269;44.768;9.600;2024-02-23T02:43:30;2.53;;;0.80;;
80623;SDS011;70269;44.768;9.600;2024-02-23T02:45:56;1.58;;;0.85;;
80623;SDS011;70269;44.768;9.600;2024-02-23T02:48:22;2.45;;;0.93;;
80623;SDS011;70269;44.768;9.600;2024-02-23T02:50:48;1.48;;;0.68;;
80623;SDS011;70269;44.768;9.600;2024-02-23T02:53:15;2.35;;;0.70;;
80623;SDS011;70269;44.768;9.600;2024-02-23T02:55:41;1.60;;;0.70;;
80623;SDS011;70269;44.768;9.600;2024-02-23T02:58:08;3.38;;;0.90;;
80623;SDS011;70269;44.768;9.600;2024-02-23T03:00:34;1.45;;;0.63;;
80623;SDS011;70269;44.768;9.600;2024-02-23T03:02:59;2.28;;;0.60;;
80623;SDS011;70269;44.768;9.600;2024-02-23T03:05:25;4.30;;;0.93;;
80623;SDS011;70269;44.768;9.600;2024-02-23T03:07:52;0.77;;;0.43;;
80623;SDS011;70269;44.768;9.600;2024-02-23T03:10:17;0.75;;;0.40;;
80623;SDS011;70269;44.768;9.600;2024-02-23T03:12:43;0.63;;;0.30;;
80623;SDS011;70269;44.768;9.600;2024-02-23T03:15:09;0.52;;;0.32;;
80623;SDS011;70269;44.768;9.600;2024-02-23T03:17:37;0.90;;;0.50;;
80623;SDS011;70269;44.768;9.600;2024-02-23T03:20:03;0.25;;;0.20;;
80623;SDS011;70269;44.768;9.600;2024-02-23T03:22:39;1.10;;;0.38;;
80623;SDS011;70269;44.768;9.600;2024-02-23T03:25:05;0.40;;;0.28;;
80623;SDS011;70269;44.768;9.600;2024-02-23T03:27:36;1.45;;;0.32;;
80623;SDS011;70269;44.768;9.600;2024-02-23T03:30:05;1.42;;;0.40;;
80623;SDS011;70269;44.768;9.600;2024-02-23T03:32:33;1.27;;;0.60;;
80623;SDS011;70269;44.768;9.600;2024-02-23T03:35:02;0.57;;;0.40;;
80623;SDS011;70269;44.768;9.600;2024-02-23T03:37:28;3.08;;;0.90;;
80623;SDS011;70269;44.768;9.600;2024-02-23T03:39:54;1.00;;;0.45;;
80623;SDS011;70269;44.768;9.600;2024-02-23T03:42:20;2.72;;;0.68;;
80623;SDS011;70269;44.768;9.600;2024-02-23T03:44:45;1.83;;;0.70;;
80623;SDS011;70269;44.768;9.600;2024-02-23T03:47:11;1.45;;;0.57;;
80623;SDS011;70269;44.768;9.600;2024-02-23T03:49:37;1.95;;;0.50;;
80623;SDS011;70269;44.768;9.600;2024-02-23T03:52:03;2.53;;;0.65;;
80623;SDS011;70269;44.768;9.600;2024-02-23T03:54:29;1.27;;;0.60;;
80623;SDS011;70269;44.768;9.600;2024-02-23T03:56:56;1.52;;;0.70;;
80623;SDS011;70269;44.768;9.600;2024-02-23T03:59:22;4.03;;;0.80;;
80623;SDS011;70269;44.768;9.600;2024-02-23T04:01:48;3.42;;;0.80;;
80623;SDS011;70269;44.768;9.600;2024-02-23T04:04:14;2.65;;;0.80;;
80623;SDS011;70269;44.768;9.600;2024-02-23T04:06:40;1.50;;;0.60;;
80623;SDS011;70269;44.768;9.600;2024-02-23T04:09:05;0.88;;;0.50;;
80623;SDS011;70269;44.768;9.600;2024-02-23T04:11:31;1.40;;;0.50;;
80623;SDS011;70269;44.768;9.600;2024-02-23T04:13:57;2.58;;;0.60;;
80623;SDS011;70269;44.768;9.600;2024-02-23T04:16:23;1.85;;;0.65;;
80623;SDS011;70269;44.768;9.600;2024-02-23T04:18:50;1.63;;;0.70;;
80623;SDS011;70269;44.768;9.600;2024-02-23T04:21:16;2.47;;;0.63;;
80623;SDS011;70269;44.768;9.600;2024-02-23T04:23:43;2.08;;;0.80;;
80623;SDS011;70269;44.768;9.600;2024-02-23T04:26:08;1.60;;;0.60;;
80623;SDS011;70269;44.768;9.600;2024-02-23T04:28:34;1.60;;;0.60;;
80623;SDS011;70269;44.768;9.600;2024-02-23T04:31:03;1.48;;;0.60;;
80623;SDS011;70269;44.768;9.600;2024-02-23T04:33:28;0.82;;;0.40;;
80623;SDS011;70269;44.768;9.600;2024-02-23T04:35:54;4.15;;;0.60;;
80623;SDS011;70269;44.768;9.600;2024-02-23T04:38:19;0.60;;;0.40;;
80623;SDS011;70269;44.768;9.600;2024-02-23T04:40:45;0.98;;;0.43;;
80623;SDS011;70269;44.768;9.600;2024-02-23T04:43:11;1.63;;;0.57;;
80623;SDS011;70269;44.768;9.600;2024-02-23T04:45:36;1.23;;;0.50;;
80623;SDS011;70269;44.768;9.600;2024-02-23T04:48:02;1.50;;;0.73;;
80623;SDS011;70269;44.768;9.600;2024-02-23T04:50:29;3.72;;;0.55;;
80623;SDS011;70269;44.768;9.600;2024-02-23T04:52:54;1.02;;;0.45;;
80623;SDS011;70269;44.768;9.600;2024-02-23T04:55:20;1.10;;;0.50;;
80623;SDS011;70269;44.768;9.600;2024-02-23T04:57:45;1.35;;;0.52;;
80623;SDS011;70269;44.768;9.600;2024-02-23T05:00:11;2.20;;;1.00;;
80623;SDS011;70269;44.768;9.600;2024-02-23T05:02:37;2.60;;;0.60;;
80623;SDS011;70269;44.768;9.600;2024-02-23T05:05:03;2.30;;;1.10;;
80623;SDS011;70269;44.768;9.600;2024-02-23T05:07:30;2.80;;;1.50;;
80623;SDS011;70269;44.768;9.600;2024-02-23T05:09:57;3.47;;;1.48;;
80623;SDS011;70269;44.768;9.600;2024-02-23T05:12:22;4.13;;;2.13;;
80623;SDS011;70269;44.768;9.600;2024-02-23T05:14:48;3.30;;;1.63;;
80623;SDS011;70269;44.768;9.600;2024-02-23T05:17:14;2.17;;;1.40;;
80623;SDS011;70269;44.768;9.600;2024-02-23T05:19:39;4.93;;;1.60;;
80623;SDS011;70269;44.768;9.600;2024-02-23T05:22:05;2.83;;;1.73;;
80623;SDS011;70269;44.768;9.600;2024-02-23T05:24:30;2.47;;;0.85;;
80623;SDS011;70269;44.768;9.600;2024-02-23T05:26:56;1.52;;;0.70;;
80623;SDS011;70269;44.768;9.600;2024-02-23T05:29:23;2.30;;;0.80;;
80623;SDS011;70269;44.768;9.600;2024-02-23T05:31:51;2.35;;;0.50;;
80623;SDS011;70269;44.768;9.600;2024-02-23T05:34:17;2.70;;;1.00;;
80623;SDS011;70269;44.768;9.600;2024-02-23T05:36:46;2.60;;;1.00;;
80623;SDS011;70269;44.768;9.600;2024-02-23T05:39:12;5.70;;;0.90;;
80623;SDS011;70269;44.768;9.600;2024-02-23T05:41:40;3.15;;;0.85;;
80623;SDS011;70269;44.768;9.600;2024-02-23T05:44:06;1.98;;;0.73;;
80623;SDS011;70269;44.768;9.600;2024-02-23T05:46:32;0.70;;;0.30;;
80623;SDS011;70269;44.768;9.600;2024-02-23T05:49:00;1.38;;;0.60;;
80623;SDS011;70269;44.768;9.600;2024-02-23T05:51:25;1.13;;;0.50;;
80623;SDS011;70269;44.768;9.600;2024-02-23T05:56:19;5.05;;;1.65;;
80623;SDS011;70269;44.768;9.600;2024-02-23T05:58:45;3.05;;;1.00;;
80623;SDS011;70269;44.768;9.600;2024-02-23T06:01:11;2.75;;;0.90;;
80623;SDS011;70269;44.768;9.600;2024-02-23T06:03:37;2.83;;;1.08;;
80623;SDS011;70269;44.768;9.600;2024-02-23T06:06:06;2.38;;;0.85;;
80623;SDS011;70269;44.768;9.600;2024-02-23T06:08:32;3.10;;;1.17;;
80623;SDS011;70269;44.768;9.600;2024-02-23T06:10:58;3.97;;;1.30;;
80623;SDS011;70269;44.768;9.600;2024-02-23T06:13:25;1.65;;;0.60;;
80623;SDS011;70269;44.768;9.600;2024-02-23T06:15:50;3.13;;;0.70;;
80623;SDS011;70269;44.768;9.600;2024-02-23T06:18:16;1.95;;;0.90;;
80623;SDS011;70269;44.768;9.600;2024-02-23T06:20:41;1.05;;;0.50;;
80623;SDS011;70269;44.768;9.600;2024-02-23T06:23:07;2.90;;;1.20;;
80623;SDS011;70269;44.768;9.600;2024-02-23T06:25:33;1.85;;;0.47;;
80623;SDS011;70269;44.768;9.600;2024-02-23T06:27:58;0.32;;;0.17;;
80623;SDS011;70269;44.768;9.600;2024-02-23T06:30:24;1.80;;;0.93;;
80623;SDS011;70269;44.768;9.600;2024-02-23T06:32:49;2.80;;;0.98;;
80623;SDS011;70269;44.768;9.600;2024-02-23T06:35:15;2.08;;;0.70;;
80623;SDS011;70269;44.768;9.600;2024-02-23T06:37:41;0.88;;;0.40;;
80623;SDS011;70269;44.768;9.600;2024-02-23T06:40:06;0.70;;;0.30;;
80623;SDS011;70269;44.768;9.600;2024-02-23T06:42:33;3.10;;;1.33;;
80623;SDS011;70269;44.768;9.600;2024-02-23T06:44:59;1.33;;;0.70;;
80623;SDS011;70269;44.768;9.600;2024-02-23T06:47:24;1.60;;;0.50;;
80623;SDS011;70269;44.768;9.600;2024-02-23T06:49:50;0.10;;;0.10;;
80623;SDS011;70269;44.768;9.600;2024-02-23T06:52:16;0.13;;;0.10;;
80623;SDS011;70269;44.768;9.600;2024-02-23T06:54:43;1.52;;;0.43;;
80623;SDS011;70269;44.768;9.600;2024-02-23T06:57:09;4.38;;;1.40;;
80623;SDS011;70269;44.768;9.600;2024-02-23T06:59:34;0.70;;;0.25;;
80623;SDS011;70269;44.768;9.600;2024-02-23T07:02:00;1.50;;;0.20;;
80623;SDS011;70269;44.768;9.600;2024-02-23T07:04:25;0.77;;;0.40;;
80623;SDS011;70269;44.768;9.600;2024-02-23T07:06:52;2.58;;;0.50;;
80623;SDS011;70269;44.768;9.600;2024-02-23T07:09:17;1.77;;;0.50;;
80623;SDS011;70269;44.768;9.600;2024-02-23T07:11:43;1.27;;;0.50;;
80623;SDS011;70269;44.768;9.600;2024-02-23T07:14:10;2.65;;;0.98;;
80623;SDS011;70269;44.768;9.600;2024-02-23T07:16:39;1.50;;;0.73;;
80623;SDS011;70269;44.768;9.600;2024-02-23T07:19:06;1.55;;;0.50;;
80623;SDS011;70269;44.768;9.600;2024-02-23T07:21:32;0.50;;;0.20;;
80623;SDS011;70269;44.768;9.600;2024-02-23T07:23:58;1.35;;;0.60;;
80623;SDS011;70269;44.768;9.600;2024-02-23T07:26:24;2.78;;;1.00;;
80623;SDS011;70269;44.768;9.600;2024-02-23T07:28:53;1.55;;;0.60;;
80623;SDS011;70269;44.768;9.600;2024-02-23T07:31:19;2.70;;;0.57;;
80623;SDS011;70269;44.768;9.600;2024-02-23T07:33:45;2.13;;;0.63;;
80623;SDS011;70269;44.768;9.600;2024-02-23T07:36:14;1.55;;;0.63;;
80623;SDS011;70269;44.768;9.600;2024-02-23T07:38:40;1.75;;;0.52;;
80623;SDS011;70269;44.768;9.600;2024-02-23T07:41:05;2.97;;;0.98;;
80623;SDS011;70269;44.768;9.600;2024-02-23T07:43:31;2.13;;;0.70;;
80623;SDS011;70269;44.768;9.600;2024-02-23T07:45:57;2.67;;;0.85;;
80623;SDS011;70269;44.768;9.600;2024-02-23T07:48:22;1.27;;;0.50;;
80623;SDS011;70269;44.768;9.600;2024-02-23T07:50:48;2.00;;;0.70;;
80623;SDS011;70269;44.768;9.600;2024-02-23T07:53:13;1.35;;;0.43;;
80623;SDS011;70269;44.768;9.600;2024-02-23T07:55:39;4.20;;;2.00;;
80623;SDS011;70269;44.768;9.600;2024-02-23T07:58:05;4.78;;;2.30;;
80623;SDS011;70269;44.768;9.600;2024-02-23T08:00:31;2.75;;;1.00;;
80623;SDS011;70269;44.768;9.600;2024-02-23T08:02:57;1.45;;;0.32;;
80623;SDS011;70269;44.768;9.600;2024-02-23T08:05:24;0.80;;;0.28;;
80623;SDS011;70269;44.768;9.600;2024-02-23T08:07:50;1.33;;;0.30;;
80623;SDS011;70269;44.768;9.600;2024-02-23T08:10:15;0.95;;;0.40;;
80623;SDS011;70269;44.768;9.600;2024-02-23T08:12:41;0.80;;;0.28;;
80623;SDS011;70269;44.768;9.600;2024-02-23T08:15:06;0.57;;;0.28;;
80623;SDS011;70269;44.768;9.600;2024-02-23T08:17:32;2.10;;;0.70;;
80623;SDS011;70269;44.768;9.600;2024-02-23T08:19:58;2.78;;;0.75;;
80623;SDS011;70269;44.768;9.600;2024-02-23T08:22:24;2.42;;;0.65;;
80623;SDS011;70269;44.768;9.600;2024-02-23T08:24:49;0.82;;;0.50;;
80623;SDS011;70269;44.768;9.600;2024-02-23T08:27:15;0.57;;;0.28;;
80623;SDS011;70269;44.768;9.600;2024-02-23T08:29:41;2.30;;;0.45;;
80623;SDS011;70269;44.768;9.600;2024-02-23T08:32:06;0.60;;;0.20;;
80623;SDS011;70269;44.768;9.600;2024-02-23T08:34:32;1.48;;;0.40;;
80623;SDS011;70269;44.768;9.600;2024-02-23T08:59:12;1.33;;;0.70;;
80623;SDS011;70269;44.768;9.600;2024-02-23T09:01:38;0.30;;;0.30;;
80623;SDS011;70269;44.768;9.600;2024-02-23T09:04:04;1.20;;;0.60;;
80623;SDS011;70269;44.768;9.600;2024-02-23T09:06:29;0.45;;;0.28;;
80623;SDS011;70269;44.768;9.600;2024-02-23T09:08:55;0.75;;;0.40;;
80623;SDS011;70269;44.768;9.600;2024-02-23T09:11:22;0.65;;;0.30;;
80623;SDS011;70269;44.768;9.600;2024-02-23T09:13:47;0.68;;;0.32;;
80623;SDS011;70269;44.768;9.600;2024-02-23T09:16:13;1.35;;;0.70;;
80623;SDS011;70269;44.768;9.600;2024-02-23T09:18:39;0.60;;;0.47;;
80623;SDS011;70269;44.768;9.600;2024-02-23T09:21:06;1.05;;;0.63;;
80623;SDS011;70269;44.768;9.600;2024-02-23T09:23:31;2.20;;;0.60;;
80623;SDS011;70269;44.768;9.600;2024-02-23T09:25:57;1.45;;;0.73;;
80623;SDS011;70269;44.768;9.600;2024-02-23T09:28:23;0.82;;;0.50;;
80623;SDS011;70269;44.768;9.600;2024-02-23T09:30:48;1.30;;;0.50;;
80623;SDS011;70269;44.768;9.600;2024-02-23T09:33:14;0.30;;;0.30;;
80623;SDS011;70269;44.768;9.600;2024-02-23T09:35:40;0.75;;;0.40;;
80623;SDS011;70269;44.768;9.600;2024-02-23T09:38:05;0.90;;;0.40;;
80623;SDS011;70269;44.768;9.600;2024-02-23T09:40:31;1.20;;;0.70;;
80623;SDS011;70269;44.768;9.600;2024-02-23T09:42:57;0.20;;;0.20;;
80623;SDS011;70269;44.768;9.600;2024-02-23T09:45:24;0.40;;;0.38;;
80623;SDS011;70269;44.768;9.600;2024-02-23T09:47:51;0.50;;;0.30;;
80623;SDS011;70269;44.768;9.600;2024-02-23T09:50:23;0.55;;;0.38;;
80623;SDS011;70269;44.768;9.600;2024-02-23T09:52:49;0.95;;;0.45;;
80623;SDS011;70269;44.768;9.600;2024-02-23T09:55:16;0.63;;;0.40;;
80623;SDS011;70269;44.768;9.600;2024-02-23T09:57:44;0.40;;;0.35;;
80623;SDS011;70269;44.768;9.600;2024-02-23T10:00:12;0.52;;;0.30;;
80623;SDS011;70269;44.768;9.600;2024-02-23T10:02:42;0.68;;;0.40;;
80623;SDS011;70269;44.768;9.600;2024-02-23T10:05:10;1.40;;;0.70;;
80623;SDS011;70269;44.768;9.600;2024-02-23T10:07:36;1.33;;;0.70;;
80623;SDS011;70269;44.768;9.600;2024-02-23T10:10:01;2.00;;;0.70;;
80623;SDS011;70269;44.768;9.600;2024-02-23T10:12:27;1.08;;;0.70;;
80623;SDS011;70269;44.768;9.600;2024-02-23T10:14:53;0.65;;;0.50;;
80623;SDS011;70269;44.768;9.600;2024-02-23T10:17:19;1.15;;;0.60;;
80623;SDS011;70269;44.768;9.600;2024-02-23T10:19:45;1.60;;;0.50;;
80623;SDS011;70269;44.768;9.600;2024-02-23T10:22:11;0.77;;;0.50;;
80623;SDS011;70269;44.768;9.600;2024-02-23T10:24:37;1.85;;;0.88;;
80623;SDS011;70269;44.768;9.600;2024-02-23T10:27:02;0.57;;;0.40;;
80623;SDS011;70269;44.768;9.600;2024-02-23T10:29:30;1.35;;;0.80;;
80623;SDS011;70269;44.768;9.600;2024-02-23T10:31:56;2.58;;;1.15;;
80623;SDS011;70269;44.768;9.600;2024-02-23T10:34:23;1.73;;;0.90;;
80623;SDS011;70269;44.768;9.600;2024-02-23T10:36:49;2.08;;;0.90;;
80623;SDS011;70269;44.768;9.600;2024-02-23T10:39:16;4.72;;;1.15;;
80623;SDS011;70269;44.768;9.600;2024-02-23T10:41:47;3.85;;;1.23;;
80623;SDS011;70269;44.768;9.600;2024-02-23T10:44:18;1.35;;;0.70;;
80623;SDS011;70269;44.768;9.600;2024-02-23T10:46:44;2.40;;;0.93;;
80623;SDS011;70269;44.768;9.600;2024-02-23T10:49:10;2.20;;;1.10;;
80623;SDS011;70269;44.768;9.600;2024-02-23T10:51:38;2.53;;;0.95;;
80623;SDS011;70269;44.768;9.600;2024-02-23T10:54:06;5.75;;;1.60;;
80623;SDS011;70269;44.768;9.600;2024-02-23T10:56:31;3.10;;;1.30;;
80623;SDS011;70269;44.768;9.600;2024-02-23T10:58:57;2.00;;;1.00;;
80623;SDS011;70269;44.768;9.600;2024-02-23T11:01:23;4.20;;;1.95;;
80623;SDS011;70269;44.768;9.600;2024-02-23T11:03:49;4.50;;;2.05;;
80623;SDS011;70269;44.768;9.600;2024-02-23T11:06:18;2.30;;;1.17;;
80623;SDS011;70269;44.768;9.600;2024-02-23T11:08:49;1.85;;;1.02;;
80623;SDS011;70269;44.768;9.600;2024-02-23T11:11:16;3.05;;;1.40;;
80623;SDS011;70269;44.768;9.600;2024-02-23T11:13:44;2.28;;;1.15;;
80623;SDS011;70269;44.768;9.600;2024-02-23T11:16:21;3.53;;;1.45;;
80623;SDS011;70269;44.768;9.600;2024-02-23T11:18:48;2.00;;;0.90;;
80623;SDS011;70269;44.768;9.600;2024-02-23T11:21:14;2.92;;;1.30;;
80623;SDS011;70269;44.768;9.600;2024-02-23T11:23:40;1.77;;;0.55;;
80623;SDS011;70269;44.768;9.600;2024-02-23T11:26:11;4.47;;;1.45;;
80623;SDS011;70269;44.768;9.600;2024-02-23T11:31:15;1.65;;;0.77;;
80623;SDS011;70269;44.768;9.600;2024-02-23T11:33:49;2.92;;;1.33;;
80623;SDS011;70269;44.768;9.600;2024-02-23T11:36:50;4.25;;;1.88;;
80623;SDS011;70269;44.768;9.600;2024-02-23T11:39:08;5.22;;;2.22;;
80623;SDS011;70269;44.768;9.600;2024-02-23T11:41:38;5.20;;;2.08;;
80623;SDS011;70269;44.768;9.600;2024-02-23T11:44:04;3.70;;;1.80;;
80623;SDS011;70269;44.768;9.600;2024-02-23T11:46:32;4.20;;;2.28;;
80623;SDS011;70269;44.768;9.600;2024-02-23T11:48:57;4.03;;;2.25;;
80623;SDS011;70269;44.768;9.600;2024-02-23T11:51:25;3.97;;;2.40;;
80623;SDS011;70269;44.768;9.600;2024-02-23T11:53:55;4.10;;;2.55;;
80623;SDS011;70269;44.768;9.600;2024-02-23T11:56:23;4.90;;;2.85;;
80623;SDS011;70269;44.768;9.600;2024-02-23T11:58:49;4.10;;;2.65;;
80623;SDS011;70269;44.768;9.600;2024-02-23T12:01:15;5.20;;;2.35;;
80623;SDS011;70269;44.768;9.600;2024-02-23T12:03:40;5.05;;;2.67;;
80623;SDS011;70269;44.768;9.600;2024-02-23T12:06:09;4.57;;;2.53;;
80623;SDS011;70269;44.768;9.600;2024-02-23T12:08:35;3.30;;;1.85;;
80623;SDS011;70269;44.768;9.600;2024-02-23T12:11:05;5.00;;;2.42;;
80623;SDS011;70269;44.768;9.600;2024-02-23T12:13:36;4.05;;;2.20;;
80623;SDS011;70269;44.768;9.600;2024-02-23T12:16:02;5.43;;;2.55;;
80623;SDS011;70269;44.768;9.600;2024-02-23T12:18:28;4.85;;;2.17;;
80623;SDS011;70269;44.768;9.600;2024-02-23T12:21:15;3.00;;;1.88;;
80623;SDS011;70269;44.768;9.600;2024-02-23T12:23:49;3.85;;;1.75;;
80623;SDS011;70269;44.768;9.600;2024-02-23T12:26:16;4.32;;;2.63;;
80623;SDS011;70269;44.768;9.600;2024-02-23T12:28:43;3.50;;;2.33;;
80623;SDS011;70269;44.768;9.600;2024-02-23T12:31:09;5.28;;;2.63;;
80623;SDS011;70269;44.768;9.600;2024-02-23T12:33:36;4.30;;;2.42;;
80623;SDS011;70269;44.768;9.600;2024-02-23T12:36:03;3.92;;;2.35;;
80623;SDS011;70269;44.768;9.600;2024-02-23T12:38:30;5.18;;;2.50;;
80623;SDS011;70269;44.768;9.600;2024-02-23T12:40:56;4.43;;;2.33;;
80623;SDS011;70269;44.768;9.600;2024-02-23T12:43:22;4.22;;;2.53;;
80623;SDS011;70269;44.768;9.600;2024-02-23T12:45:55;6.85;;;3.85;;
80623;SDS011;70269;44.768;9.600;2024-02-23T12:48:22;5.47;;;2.63;;
80623;SDS011;70269;44.768;9.600;2024-02-23T12:50:48;5.70;;;3.70;;
80623;SDS011;70269;44.768;9.600;2024-02-23T12:56:05;4.55;;;2.70;;
80623;SDS011;70269;44.768;9.600;2024-02-23T12:58:38;5.57;;;3.20;;
80623;SDS011;70269;44.768;9.600;2024-02-23T13:01:04;7.80;;;3.65;;
80623;SDS011;70269;44.768;9.600;2024-02-23T13:03:32;4.55;;;2.72;;
80623;SDS011;70269;44.768;9.600;2024-02-23T13:05:58;7.45;;;3.45;;
80623;SDS011;70269;44.768;9.600;2024-02-23T13:08:25;6.93;;;3.03;;
80623;SDS011;70269;44.768;9.600;2024-02-23T13:10:51;6.20;;;3.22;;
80623;SDS011;70269;44.768;9.600;2024-02-23T13:13:21;9.18;;;4.57;;
80623;SDS011;70269;44.768;9.600;2024-02-23T13:15:48;9.40;;;3.60;;
80623;SDS011;70269;44.768;9.600;2024-02-23T13:18:16;7.32;;;3.72;;
80623;SDS011;70269;44.768;9.600;2024-02-23T13:20:42;7.15;;;4.30;;
80623;SDS011;70269;44.768;9.600;2024-02-23T13:23:09;8.38;;;3.22;;
80623;SDS011;70269;44.768;9.600;2024-02-23T13:25:37;6.10;;;3.80;;
80623;SDS011;70269;44.768;9.600;2024-02-23T13:28:06;7.00;;;4.25;;
80623;SDS011;70269;44.768;9.600;2024-02-23T13:30:33;10.23;;;4.38;;
80623;SDS011;70269;44.768;9.600;2024-02-23T13:32:59;6.32;;;3.80;;
80623;SDS011;70269;44.768;9.600;2024-02-23T13:35:25;6.03;;;3.50;;
80623;SDS011;70269;44.768;9.600;2024-02-23T13:37:51;9.13;;;4.20;;
80623;SDS011;70269;44.768;9.600;2024-02-23T13:40:17;4.50;;;3.25;;
80623;SDS011;70269;44.768;9.600;2024-02-23T13:42:43;8.15;;;3.95;;
80623;SDS011;70269;44.768;9.600;2024-02-23T13:45:11;9.55;;;4.13;;
80623;SDS011;70269;44.768;9.600;2024-02-23T13:47:39;7.43;;;3.55;;
80623;SDS011;70269;44.768;9.600;2024-02-23T13:50:05;8.20;;;3.97;;
80623;SDS011;70269;44.768;9.600;2024-02-23T13:52:31;7.20;;;4.10;;
80623;SDS011;70269;44.768;9.600;2024-02-23T13:54:57;9.50;;;5.05;;
80623;SDS011;70269;44.768;9.600;2024-02-23T13:57:22;5.35;;;3.50;;
80623;SDS011;70269;44.768;9.600;2024-02-23T13:59:48;5.50;;;2.55;;
80623;SDS011;70269;44.768;9.600;2024-02-23T14:02:14;5.32;;;3.13;;
80623;SDS011;70269;44.768;9.600;2024-02-23T14:04:40;5.93;;;3.63;;
80623;SDS011;70269;44.768;9.600;2024-02-23T14:07:06;4.40;;;2.55;;
80623;SDS011;70269;44.768;9.600;2024-02-23T14:09:32;6.15;;;3.05;;
80623;SDS011;70269;44.768;9.600;2024-02-23T14:11:58;5.05;;;2.65;;
80623;SDS011;70269;44.768;9.600;2024-02-23T14:14:24;5.25;;;3.58;;
80623;SDS011;70269;44.768;9.600;2024-02-23T14:16:50;4.45;;;3.05;;
80623;SDS011;70269;44.768;9.600;2024-02-23T14:19:16;6.72;;;3.75;;
80623;SDS011;70269;44.768;9.600;2024-02-23T14:21:41;6.45;;;3.47;;
80623;SDS011;70269;44.768;9.600;2024-02-23T14:24:07;9.23;;;4.22;;
80623;SDS011;70269;44.768;9.600;2024-02-23T14:26:33;13.40;;;3.13;;
80623;SDS011;70269;44.768;9.600;2024-02-23T14:28:59;8.48;;;4.38;;
80623;SDS011;70269;44.768;9.600;2024-02-23T14:31:25;11.57;;;4.45;;
80623;SDS011;70269;44.768;9.600;2024-02-23T14:33:51;9.07;;;3.85;;
80623;SDS011;70269;44.768;9.600;2024-02-23T14:36:17;10.07;;;4.57;;
80623;SDS011;70269;44.768;9.600;2024-02-23T14:38:43;8.20;;;4.85;;
80623;SDS011;70269;44.768;9.600;2024-02-23T14:41:08;7.65;;;3.97;;
80623;SDS011;70269;44.768;9.600;2024-02-23T14:43:35;7.45;;;4.00;;
80623;SDS011;70269;44.768;9.600;2024-02-23T14:46:01;9.02;;;4.90;;
80623;SDS011;70269;44.768;9.600;2024-02-23T14:48:27;8.05;;;4.45;;
80623;SDS011;70269;44.768;9.600;2024-02-23T14:50:52;6.53;;;3.85;;
80623;SDS011;70269;44.768;9.600;2024-02-23T14:53:18;9.15;;;5.00;;
80623;SDS011;70269;44.768;9.600;2024-02-23T14:55:44;12.23;;;5.70;;
80623;SDS011;70269;44.768;9.600;2024-02-23T14:58:10;9.77;;;5.20;;
80623;SDS011;70269;44.768;9.600;2024-02-23T15:00:35;9.00;;;5.47;;
80623;SDS011;70269;44.768;9.600;2024-02-23T15:03:02;10.23;;;5.55;;
80623;SDS011;70269;44.768;9.600;2024-02-23T15:05:28;8.40;;;5.13;;
80623;SDS011;70269;44.768;9.600;2024-02-23T15:07:54;9.02;;;5.22;;
80623;SDS011;70269;44.768;9.600;2024-02-23T15:10:20;8.80;;;4.60;;
80623;SDS011;70269;44.768;9.600;2024-02-23T15:12:46;8.45;;;5.07;;
80623;SDS011;70269;44.768;9.600;2024-02-23T15:15:11;9.00;;;4.22;;